Time;durP1;ratioP1;P1;durP2;ratioP2;P2;SDS_P1;SDS_P2;PMS_P1;PMS_P2;Temp;Humidity;BMP_temperature;BMP_pressure;BME280_temperature;BME280_humidity;BME280_pressure;Samples;Min_cycle;Max_cycle;Signal;HPM_P1;HPM_P2
2021/06/23 00:01:59;;;;;;;;;;;17.90;99.90;;;;;;5013878;28;19925;-65
2021/06/23 00:04:48;;;;;;;;;;;17.90;99.90;;;;;;5015135;28;19940;-67
2021/06/23 00:07:36;;;;;;;;;;;17.90;99.90;;;;;;5018950;28;19929;-66
2021/06/23 00:13:37;;;;;;;;;;;17.80;99.90;;;;;;5012909;28;20416;-66
2021/06/23 00:16:26;;;;;;;;;;;17.70;99.90;;;;;;5018939;28;19991;-67
2021/06/23 00:19:17;;;;;;;;;;;17.70;99.90;;;;;;5028499;28;19983;-66
2021/06/23 00:22:05;;;;;;;;;;;17.70;99.90;;;;;;5029599;28;19925;-66
2021/06/23 00:24:54;;;;;;;;;;;17.80;99.90;;;;;;5025399;28;19933;-66
2021/06/23 00:27:42;;;;;;;;;;;17.80;99.90;;;;;;5028494;28;19925;-66
2021/06/23 00:30:31;;;;;;;;;;;17.80;99.90;;;;;;5011263;28;20357;-67
2021/06/23 00:33:21;;;;;;;;;;;17.80;99.90;;;;;;5021613;28;19925;-66
2021/06/23 00:36:11;;;;;;;;;;;17.80;99.90;;;;;;5020857;28;19929;-70
2021/06/23 00:39:00;;;;;;;;;;;17.70;99.90;;;;;;5022520;28;19983;-66
2021/06/23 00:41:50;;;;;;;;;;;17.60;99.90;;;;;;5012144;28;19940;-66
2021/06/23 00:44:40;;;;;;;;;;;17.50;99.90;;;;;;5020446;28;20103;-66
2021/06/23 00:47:29;;;;;;;;;;;17.60;99.90;;;;;;5009612;28;19972;-66
2021/06/23 00:50:21;;;;;;;;;;;17.60;99.90;;;;;;5006030;28;19930;-66
2021/06/23 00:53:31;;;;;;;;;;;17.50;99.90;;;;;;4999468;28;19926;-67
2021/06/23 00:56:20;;;;;;;;;;;17.50;99.90;;;;;;5010055;28;19926;-66
2021/06/23 00:59:11;;;;;;;;;;;17.60;99.90;;;;;;4984924;28;19926;-66
2021/06/23 01:02:02;;;;;;;;;;;17.50;99.90;;;;;;5017082;28;19956;-66
2021/06/23 01:04:51;;;;;;;;;;;17.50;99.90;;;;;;5002263;28;19936;-66
2021/06/23 01:07:40;;;;;;;;;;;17.50;99.90;;;;;;5021545;28;19977;-66
2021/06/23 01:10:32;;;;;;;;;;;17.50;99.90;;;;;;5028913;28;19948;-69
2021/06/23 01:13:36;;;;;;;;;;;17.30;99.90;;;;;;5029248;28;20432;-66
2021/06/23 01:16:29;;;;;;;;;;;17.30;99.90;;;;;;5011125;28;20353;-66
2021/06/23 01:19:20;;;;;;;;;;;17.30;99.90;;;;;;5038281;28;19951;-67
2021/06/23 01:22:13;;;;;;;;;;;17.10;99.90;;;;;;5040510;28;19931;-67
2021/06/23 01:25:02;;;;;;;;;;;17.00;99.90;;;;;;5038572;28;19925;-66
2021/06/23 01:27:51;;;;;;;;;;;17.00;99.90;;;;;;5022840;28;20412;-67
2021/06/23 01:30:39;;;;;;;;;;;17.00;99.90;;;;;;5021703;28;20008;-66
2021/06/23 01:33:44;;;;;;;;;;;17.10;99.90;;;;;;5015705;28;20015;-66
2021/06/23 01:36:34;;;;;;;;;;;17.10;99.90;;;;;;5030039;28;19932;-66
2021/06/23 01:39:24;;;;;;;;;;;17.10;99.90;;;;;;5024878;28;19930;-67
2021/06/23 01:42:14;;;;;;;;;;;17.10;99.90;;;;;;5009324;28;20030;-66
2021/06/23 01:45:03;;;;;;;;;;;17.00;99.90;;;;;;5035892;28;20296;-66
2021/06/23 01:48:18;;;;;;;;;;;17.10;99.90;;;;;;5032015;28;19929;-66
2021/06/23 01:51:08;;;;;;;;;;;17.10;99.90;;;;;;5031506;28;20011;-66
2021/06/23 01:54:04;;;;;;;;;;;17.00;99.90;;;;;;5021100;28;19933;-66
2021/06/23 01:56:55;;;;;;;;;;;16.90;99.90;;;;;;5025248;28;19929;-66
2021/06/23 01:59:44;;;;;;;;;;;16.90;99.90;;;;;;5020459;28;19932;-66
2021/06/23 02:03:01;;;;;;;;;;;17.00;99.90;;;;;;5017987;28;19925;-67
2021/06/23 02:06:02;;;;;;;;;;;16.90;99.90;;;;;;5019377;28;19937;-66
2021/06/23 02:08:56;;;;;;;;;;;16.80;99.90;;;;;;5030157;28;19972;-66
2021/06/23 02:11:54;;;;;;;;;;;16.80;99.90;;;;;;5018048;28;20014;-66
2021/06/23 02:14:47;;;;;;;;;;;16.90;99.90;;;;;;5021680;28;20023;-66
2021/06/23 02:17:39;;;;;;;;;;;16.80;99.90;;;;;;5033798;28;19960;-66
2021/06/23 02:20:59;;;;;;;;;;;16.80;99.90;;;;;;5033984;28;19932;-66
2021/06/23 02:23:47;;;;;;;;;;;16.90;99.90;;;;;;5038803;28;19929;-66
2021/06/23 02:26:38;;;;;;;;;;;17.00;99.90;;;;;;5020856;28;20293;-67
2021/06/23 02:29:27;;;;;;;;;;;17.00;99.90;;;;;;5021232;28;19925;-67
2021/06/23 02:32:27;;;;;;;;;;;17.00;99.90;;;;;;5031428;28;20373;-67
2021/06/23 02:35:42;;;;;;;;;;;17.00;99.90;;;;;;5045612;28;19925;-67
2021/06/23 02:38:42;;;;;;;;;;;16.90;99.90;;;;;;5033354;28;19925;-66
2021/06/23 02:41:56;;;;;;;;;;;16.90;99.90;;;;;;5036019;28;20002;-66
2021/06/23 02:44:46;;;;;;;;;;;16.90;99.90;;;;;;5010617;28;19933;-67
2021/06/23 02:47:36;;;;;;;;;;;17.00;99.90;;;;;;5014421;28;19959;-66
2021/06/23 02:50:37;;;;;;;;;;;16.90;99.90;;;;;;5001075;28;20370;-67
2021/06/23 02:53:38;;;;;;;;;;;16.90;99.90;;;;;;5000685;28;19931;-66
2021/06/23 02:56:27;;;;;;;;;;;16.90;99.90;;;;;;5005043;28;20277;-65
2021/06/23 02:59:19;;;;;;;;;;;16.80;99.90;;;;;;5017910;28;19925;-66
2021/06/23 03:02:09;;;;;;;;;;;16.70;99.90;;;;;;5013750;28;19937;-67
2021/06/23 03:05:00;;;;;;;;;;;16.70;99.90;;;;;;5017358;28;20277;-67
2021/06/23 03:07:50;;;;;;;;;;;16.60;99.90;;;;;;5031075;28;19930;-67
2021/06/23 03:10:49;;;;;;;;;;;16.50;99.90;;;;;;5005324;28;19936;-67
2021/06/23 03:13:57;;;;;;;;;;;16.30;99.90;;;;;;5003155;28;19933;-66
2021/06/23 03:16:51;;;;;;;;;;;16.30;99.90;;;;;;5015038;28;19941;-67
2021/06/23 03:19:40;;;;;;;;;;;16.10;99.90;;;;;;5005651;28;19926;-67
2021/06/23 03:22:32;;;;;;;;;;;16.00;99.90;;;;;;5014935;28;20022;-67
2021/06/23 03:25:22;;;;;;;;;;;16.00;99.90;;;;;;5011322;28;20289;-67
2021/06/23 03:28:11;;;;;;;;;;;16.00;99.90;;;;;;5022030;28;19974;-67
2021/06/23 03:31:07;;;;;;;;;;;16.10;99.90;;;;;;5028828;28;19932;-67
2021/06/23 03:33:58;;;;;;;;;;;16.00;99.90;;;;;;5017518;28;19948;-67
2021/06/23 03:36:54;;;;;;;;;;;16.00;99.90;;;;;;5037809;28;19976;-67
2021/06/23 03:39:47;;;;;;;;;;;15.90;99.90;;;;;;5014752;28;19973;-67
2021/06/23 03:42:37;;;;;;;;;;;15.90;99.90;;;;;;5045657;28;19925;-67
2021/06/23 03:45:26;;;;;;;;;;;16.00;99.90;;;;;;5027743;28;19944;-67
2021/06/23 03:48:15;;;;;;;;;;;16.00;99.90;;;;;;5011999;28;19917;-68
2021/06/23 03:51:06;;;;;;;;;;;15.90;99.90;;;;;;5004086;28;19932;-67
2021/06/23 03:53:55;;;;;;;;;;;15.90;99.90;;;;;;5003537;28;19914;-67
2021/06/23 03:56:45;;;;;;;;;;;15.90;99.90;;;;;;5018351;28;19926;-68
2021/06/23 03:59:34;;;;;;;;;;;15.90;99.90;;;;;;4996110;28;19954;-69
2021/06/23 04:02:23;;;;;;;;;;;15.90;99.90;;;;;;5032085;28;19916;-67
2021/06/23 04:05:13;;;;;;;;;;;15.90;99.90;;;;;;5040683;28;19913;-67
2021/06/23 04:08:04;;;;;;;;;;;16.10;99.90;;;;;;5047405;28;19913;-67
2021/06/23 04:10:53;;;;;;;;;;;16.20;99.90;;;;;;5029398;28;19913;-68
2021/06/23 04:13:43;;;;;;;;;;;16.20;99.90;;;;;;5042912;28;19933;-69
2021/06/23 04:16:32;;;;;;;;;;;16.20;99.90;;;;;;5033946;28;19963;-68
2021/06/23 04:19:21;;;;;;;;;;;16.30;99.90;;;;;;5036363;28;19932;-68
2021/06/23 04:22:15;;;;;;;;;;;16.30;99.90;;;;;;5036300;28;19933;-67
2021/06/23 04:25:05;;;;;;;;;;;16.40;99.90;;;;;;5018653;28;20064;-67
2021/06/23 04:27:54;;;;;;;;;;;16.30;99.90;;;;;;5021936;28;19925;-67
2021/06/23 04:30:45;;;;;;;;;;;16.30;99.90;;;;;;5044566;28;19925;-66
2021/06/23 04:33:34;;;;;;;;;;;16.30;99.90;;;;;;5017279;28;20007;-66
2021/06/23 04:36:28;;;;;;;;;;;16.30;99.90;;;;;;5032662;28;19929;-67
2021/06/23 04:39:17;;;;;;;;;;;16.40;99.90;;;;;;5035909;28;19955;-66
2021/06/23 04:42:29;;;;;;;;;;;16.40;99.90;;;;;;5026648;28;19930;-65
2021/06/23 04:45:19;;;;;;;;;;;16.40;99.90;;;;;;5019136;28;19925;-65
2021/06/23 04:48:25;;;;;;;;;;;16.50;99.90;;;;;;4996875;28;19925;-67
2021/06/23 04:51:17;;;;;;;;;;;16.60;99.90;;;;;;4989751;28;19930;-66
2021/06/23 04:54:08;;;;;;;;;;;16.70;99.90;;;;;;4975144;28;19929;-66
2021/06/23 04:56:57;;;;;;;;;;;16.80;99.90;;;;;;4991073;28;19929;-66
2021/06/23 04:59:47;;;;;;;;;;;16.80;99.90;;;;;;4983973;28;19953;-66
2021/06/23 05:02:35;;;;;;;;;;;16.90;99.90;;;;;;5013609;28;19972;-66
2021/06/23 05:05:25;;;;;;;;;;;17.00;99.90;;;;;;5014212;28;19932;-65
2021/06/23 05:08:15;;;;;;;;;;;17.10;99.90;;;;;;5012781;28;20362;-65
2021/06/23 05:11:04;;;;;;;;;;;17.20;99.90;;;;;;5009912;28;19933;-65
2021/06/23 05:13:56;;;;;;;;;;;17.20;99.90;;;;;;5003636;28;19925;-67
2021/06/23 05:16:47;;;;;;;;;;;17.20;99.90;;;;;;5009257;28;19968;-67
2021/06/23 05:19:36;;;;;;;;;;;17.10;99.90;;;;;;4997180;28;20260;-64
2021/06/23 05:22:26;;;;;;;;;;;17.10;99.90;;;;;;5014162;28;20475;-67
2021/06/23 05:25:15;;;;;;;;;;;17.10;99.90;;;;;;5008648;28;19925;-66
2021/06/23 05:28:04;;;;;;;;;;;17.10;99.90;;;;;;5012234;28;20353;-68
2021/06/23 05:30:53;;;;;;;;;;;17.00;99.90;;;;;;5009338;28;19932;-66
2021/06/23 05:33:47;;;;;;;;;;;17.00;99.90;;;;;;5014430;28;19925;-66
2021/06/23 05:36:36;;;;;;;;;;;17.10;99.90;;;;;;5007667;28;20362;-66
2021/06/23 05:39:26;;;;;;;;;;;17.20;99.90;;;;;;4999303;28;19929;-68
2021/06/23 05:42:20;;;;;;;;;;;17.20;99.90;;;;;;5011888;28;20012;-65
2021/06/23 05:45:09;;;;;;;;;;;17.30;99.90;;;;;;5024946;28;19933;-66
2021/06/23 05:47:58;;;;;;;;;;;17.30;99.90;;;;;;5031761;28;19936;-67
2021/06/23 05:50:47;;;;;;;;;;;17.30;99.90;;;;;;5059150;28;19929;-66
2021/06/23 05:53:59;;;;;;;;;;;17.30;99.90;;;;;;5041956;28;19933;-66
2021/06/23 05:56:50;;;;;;;;;;;17.30;99.90;;;;;;5033489;28;19936;-65
2021/06/23 05:59:39;;;;;;;;;;;17.30;99.90;;;;;;5033575;28;19964;-66
2021/06/23 06:02:28;;;;;;;;;;;17.30;99.90;;;;;;5028110;28;20543;-66
2021/06/23 06:05:18;;;;;;;;;;;17.30;99.90;;;;;;5034737;28;20280;-67
2021/06/23 06:08:06;;;;;;;;;;;17.40;99.90;;;;;;5033987;28;19925;-65
2021/06/23 06:10:55;;;;;;;;;;;17.40;99.90;;;;;;5033399;28;19925;-66
2021/06/23 06:13:45;;;;;;;;;;;17.50;99.90;;;;;;5037226;28;19925;-66
2021/06/23 06:16:34;;;;;;;;;;;17.50;99.90;;;;;;5023785;28;20125;-66
2021/06/23 06:19:23;;;;;;;;;;;17.40;99.90;;;;;;5033196;28;20369;-66
2021/06/23 06:22:13;;;;;;;;;;;17.30;99.90;;;;;;5041538;28;19947;-65
2021/06/23 06:25:01;;;;;;;;;;;17.20;99.90;;;;;;5049196;28;20356;-66
2021/06/23 06:27:52;;;;;;;;;;;17.30;99.90;;;;;;5033777;28;19929;-65
2021/06/23 06:30:44;;;;;;;;;;;17.30;99.90;;;;;;5040267;28;19925;-66
2021/06/23 06:33:33;;;;;;;;;;;17.40;99.90;;;;;;5020713;28;19936;-66
2021/06/23 06:36:22;;;;;;;;;;;17.50;99.90;;;;;;5027709;28;19940;-66
2021/06/23 06:39:11;;;;;;;;;;;17.60;99.90;;;;;;5029404;28;19925;-66
2021/06/23 06:42:00;;;;;;;;;;;17.60;99.90;;;;;;5001889;28;19926;-66
2021/06/23 06:44:49;;;;;;;;;;;17.60;99.90;;;;;;5014667;28;19939;-67
2021/06/23 06:47:39;;;;;;;;;;;17.60;99.90;;;;;;5012493;28;20042;-65
2021/06/23 06:50:27;;;;;;;;;;;17.60;99.90;;;;;;5015967;28;19926;-66
2021/06/23 06:53:17;;;;;;;;;;;17.70;99.90;;;;;;5015234;28;19929;-65
2021/06/23 06:56:06;;;;;;;;;;;17.70;99.90;;;;;;5015228;28;19926;-65
2021/06/23 06:58:55;;;;;;;;;;;17.60;99.90;;;;;;5016620;28;19976;-66
2021/06/23 07:01:44;;;;;;;;;;;17.60;99.90;;;;;;5008713;28;19999;-65
2021/06/23 07:04:34;;;;;;;;;;;17.70;99.90;;;;;;5014436;28;20335;-66
2021/06/23 07:07:22;;;;;;;;;;;17.80;99.90;;;;;;5013874;28;20269;-66
2021/06/23 07:10:11;;;;;;;;;;;17.90;99.90;;;;;;5009036;28;20004;-65
2021/06/23 07:13:00;;;;;;;;;;;18.00;99.90;;;;;;5011516;28;19995;-67
2021/06/23 07:15:51;;;;;;;;;;;18.20;99.90;;;;;;5011305;28;19935;-67
2021/06/23 07:18:39;;;;;;;;;;;18.50;99.90;;;;;;5015378;28;19929;-67
2021/06/23 07:21:30;;;;;;;;;;;18.70;99.90;;;;;;5014492;28;20189;-66
2021/06/23 07:24:19;;;;;;;;;;;18.80;99.90;;;;;;5010752;28;19936;-66
2021/06/23 07:27:08;;;;;;;;;;;19.20;99.90;;;;;;5014757;28;19925;-66
2021/06/23 07:29:57;;;;;;;;;;;20.00;99.90;;;;;;5014616;28;19932;-65
2021/06/23 07:32:50;;;;;;;;;;;20.10;99.90;;;;;;5012395;28;19930;-65
2021/06/23 07:38:46;;;;;;;;;;;19.00;99.90;;;;;;5023951;28;19926;-68
2021/06/23 07:41:42;;;;;;;;;;;19.00;99.90;;;;;;5019641;28;19929;-66
2021/06/23 07:44:34;;;;;;;;;;;19.40;99.90;;;;;;5033936;28;19925;-66
2021/06/23 07:47:24;;;;;;;;;;;19.80;99.90;;;;;;5038008;28;19925;-66
2021/06/23 07:50:41;;;;;;;;;;;20.00;99.90;;;;;;5043676;28;20452;-68
2021/06/23 07:53:36;;;;;;;;;;;19.70;99.90;;;;;;5042290;28;19929;-66
2021/06/23 08:01:05;;;;;;;;;;;19.20;99.90;;;;;;5041323;28;19936;-66
2021/06/23 08:09:32;;;;;;;;;;;19.40;99.90;;;;;;5029488;28;19925;-66
2021/06/23 08:12:27;;;;;;;;;;;19.50;99.90;;;;;;5036143;28;19929;-66
2021/06/23 08:15:16;;;;;;;;;;;19.70;99.90;;;;;;5030467;28;19965;-65
2021/06/23 08:18:04;;;;;;;;;;;19.80;99.90;;;;;;5034092;28;19936;-65
2021/06/23 08:20:53;;;;;;;;;;;19.50;99.90;;;;;;5032684;28;19929;-65
2021/06/23 08:23:41;;;;;;;;;;;19.30;99.90;;;;;;5032220;28;20160;-66
2021/06/23 08:26:30;;;;;;;;;;;19.30;99.90;;;;;;5036369;28;19933;-67
2021/06/23 08:29:19;;;;;;;;;;;19.50;99.90;;;;;;5031769;28;19932;-65
2021/06/23 08:32:08;;;;;;;;;;;19.60;99.90;;;;;;5028499;28;19999;-65
2021/06/23 08:34:57;;;;;;;;;;;19.90;99.90;;;;;;5032973;28;19951;-65
2021/06/23 08:37:46;;;;;;;;;;;19.80;99.90;;;;;;5034010;28;19925;-67
2021/06/23 08:40:35;;;;;;;;;;;19.50;99.90;;;;;;5035270;28;19925;-65
2021/06/23 08:43:48;;;;;;;;;;;19.60;99.90;;;;;;5034863;28;19925;-66
2021/06/23 08:46:39;;;;;;;;;;;19.90;99.90;;;;;;4996237;28;20005;-66
2021/06/23 08:49:27;;;;;;;;;;;20.20;99.90;;;;;;5018991;28;20396;-66
2021/06/23 08:52:41;;;;;;;;;;;20.70;99.90;;;;;;5032191;28;19935;-66
2021/06/23 08:55:30;;;;;;;;;;;22.00;99.90;;;;;;5011453;28;20270;-65
2021/06/23 08:58:20;;;;;;;;;;;23.40;99.90;;;;;;5016012;28;20238;-66
2021/06/23 09:01:09;;;;;;;;;;;25.00;99.90;;;;;;5003538;28;19925;-67
2021/06/23 09:04:04;;;;;;;;;;;24.20;99.90;;;;;;5012530;28;19925;-66
2021/06/23 09:06:53;;;;;;;;;;;23.70;99.90;;;;;;5013665;28;19925;-66
2021/06/23 09:09:42;;;;;;;;;;;23.50;99.90;;;;;;5013177;28;19933;-66
2021/06/23 09:12:31;;;;;;;;;;;25.00;99.90;;;;;;5022696;28;20389;-66
2021/06/23 09:15:38;;;;;;;;;;;26.60;99.90;;;;;;5007771;28;19925;-66
2021/06/23 09:18:28;;;;;;;;;;;28.30;98.20;;;;;;5011355;28;19925;-66
2021/06/23 09:21:19;;;;;;;;;;;28.50;96.80;;;;;;5017277;28;19929;-67
2021/06/23 09:24:08;;;;;;;;;;;29.60;95.60;;;;;;5018272;28;20013;-67
2021/06/23 09:26:58;;;;;;;;;;;30.10;94.00;;;;;;5014001;28;19964;-66
2021/06/23 09:29:49;;;;;;;;;;;33.00;86.30;;;;;;5021174;28;19929;-67
2021/06/23 09:32:38;;;;;;;;;;;30.20;89.70;;;;;;5008479;28;19933;-66
2021/06/23 09:35:27;;;;;;;;;;;28.40;93.80;;;;;;5015503;28;19952;-66
2021/06/23 09:38:33;;;;;;;;;;;27.70;94.80;;;;;;5010719;28;20297;-69
2021/06/23 09:41:23;;;;;;;;;;;29.00;92.60;;;;;;5008770;28;20397;-66
2021/06/23 09:44:27;;;;;;;;;;;28.40;94.50;;;;;;5003312;28;19951;-65
2021/06/23 09:47:16;;;;;;;;;;;26.90;95.90;;;;;;5025041;28;20296;-66
2021/06/23 09:50:04;;;;;;;;;;;25.40;99.20;;;;;;5034678;28;19937;-66
2021/06/23 09:52:54;;;;;;;;;;;24.20;99.90;;;;;;5031301;28;19932;-66
2021/06/23 09:55:46;;;;;;;;;;;25.70;99.90;;;;;;5029694;28;20010;-66
2021/06/23 09:58:38;;;;;;;;;;;25.70;99.90;;;;;;5029127;28;19929;-66
2021/06/23 10:01:29;;;;;;;;;;;24.50;99.90;;;;;;5022424;28;19968;-66
2021/06/23 10:04:18;;;;;;;;;;;24.00;99.90;;;;;;5031128;28;20397;-66
2021/06/23 10:07:07;;;;;;;;;;;24.40;99.90;;;;;;5027895;28;20767;-66
2021/06/23 10:09:55;;;;;;;;;;;24.40;99.90;;;;;;5029567;28;20284;-66
2021/06/23 10:12:46;;;;;;;;;;;24.20;99.90;;;;;;5013925;28;19926;-66
2021/06/23 10:15:35;;;;;;;;;;;23.90;99.90;;;;;;5029458;28;20416;-67
2021/06/23 10:18:24;;;;;;;;;;;23.30;99.90;;;;;;5030685;28;19925;-66
2021/06/23 10:21:13;;;;;;;;;;;23.60;99.90;;;;;;5030069;28;20352;-67
2021/06/23 10:24:02;;;;;;;;;;;23.80;99.90;;;;;;5032471;28;19929;-67
2021/06/23 10:26:51;;;;;;;;;;;25.50;99.90;;;;;;5034136;28;19964;-67
2021/06/23 10:29:46;;;;;;;;;;;28.60;97.20;;;;;;5032550;28;19945;-66
2021/06/23 10:32:35;;;;;;;;;;;29.40;96.10;;;;;;5010871;28;19944;-67
2021/06/23 10:35:25;;;;;;;;;;;29.20;96.40;;;;;;5031526;28;19925;-67
2021/06/23 10:38:16;;;;;;;;;;;28.60;97.10;;;;;;5028084;28;20063;-67
2021/06/23 10:41:06;;;;;;;;;;;28.50;96.90;;;;;;5032349;28;19929;-68
2021/06/23 10:44:16;;;;;;;;;;;28.00;98.00;;;;;;5021434;28;19926;-67
2021/06/23 10:47:08;;;;;;;;;;;28.20;98.10;;;;;;5022969;28;19925;-67
2021/06/23 10:49:57;;;;;;;;;;;27.20;99.30;;;;;;5032283;28;19925;-67
2021/06/23 10:52:47;;;;;;;;;;;26.90;99.50;;;;;;5037066;28;20007;-70
2021/06/23 10:55:38;;;;;;;;;;;26.40;99.80;;;;;;5035184;28;20246;-67
2021/06/23 10:58:28;;;;;;;;;;;25.30;99.90;;;;;;5030009;28;20030;-66
2021/06/23 11:01:17;;;;;;;;;;;24.60;99.90;;;;;;5027106;28;19925;-66
2021/06/23 11:04:08;;;;;;;;;;;24.80;99.90;;;;;;5032304;28;20484;-66
2021/06/23 11:06:57;;;;;;;;;;;24.50;99.90;;;;;;5031509;28;20012;-65
2021/06/23 11:09:47;;;;;;;;;;;24.10;99.90;;;;;;5032489;28;19925;-67
2021/06/23 11:12:46;;;;;;;;;;;24.60;99.90;;;;;;5026400;28;19948;-66
2021/06/23 11:15:36;;;;;;;;;;;25.00;99.90;;;;;;5020898;28;20007;-67
2021/06/23 11:18:30;;;;;;;;;;;25.80;99.90;;;;;;5031784;28;19979;-66
2021/06/23 11:21:21;;;;;;;;;;;25.90;99.90;;;;;;5035758;28;19925;-66
2021/06/23 11:24:13;;;;;;;;;;;25.80;99.90;;;;;;5035412;28;19924;-70
2021/06/23 11:27:04;;;;;;;;;;;25.60;99.90;;;;;;5034475;28;19931;-66
2021/06/23 11:29:53;;;;;;;;;;;25.50;99.90;;;;;;5041841;28;20273;-66
2021/06/23 11:32:41;;;;;;;;;;;25.00;99.90;;;;;;5035108;28;19937;-66
2021/06/23 11:35:30;;;;;;;;;;;25.20;99.90;;;;;;5035538;28;20309;-66
2021/06/23 11:38:21;;;;;;;;;;;25.50;99.90;;;;;;5034240;28;19926;-66
2021/06/23 11:41:11;;;;;;;;;;;25.70;99.70;;;;;;5038153;28;20449;-66
2021/06/23 11:44:00;;;;;;;;;;;26.50;99.40;;;;;;5031886;28;20646;-66
2021/06/23 11:46:50;;;;;;;;;;;26.30;97.50;;;;;;5032097;28;19949;-66
2021/06/23 11:49:43;;;;;;;;;;;25.00;99.90;;;;;;5029946;28;20385;-66
2021/06/23 11:52:32;;;;;;;;;;;24.70;99.90;;;;;;5032450;28;20022;-67
2021/06/23 11:55:26;;;;;;;;;;;24.60;99.90;;;;;;5016466;28;20377;-67
2021/06/23 11:58:15;;;;;;;;;;;24.80;99.90;;;;;;5034716;28;19964;-66
2021/06/23 12:01:04;;;;;;;;;;;25.70;99.60;;;;;;5026193;28;19937;-66
2021/06/23 12:03:55;;;;;;;;;;;25.80;99.40;;;;;;5031091;28;20350;-66
2021/06/23 12:06:44;;;;;;;;;;;25.80;97.60;;;;;;5032708;28;20008;-66
2021/06/23 12:09:33;;;;;;;;;;;26.30;97.90;;;;;;5033498;28;19936;-66
2021/06/23 12:12:23;;;;;;;;;;;26.60;97.50;;;;;;5031990;28;19925;-67
2021/06/23 12:15:13;;;;;;;;;;;27.30;97.00;;;;;;5011614;28;20012;-66
2021/06/23 12:18:02;;;;;;;;;;;26.80;96.70;;;;;;5032885;28;19964;-67
2021/06/23 12:20:51;;;;;;;;;;;26.80;96.90;;;;;;5034341;28;19936;-67
2021/06/23 12:23:40;;;;;;;;;;;26.90;96.20;;;;;;5032891;28;19925;-67
2021/06/23 12:26:28;;;;;;;;;;;26.70;97.70;;;;;;5032215;28;20402;-66
2021/06/23 12:29:20;;;;;;;;;;;26.70;98.00;;;;;;5033186;28;19925;-67
2021/06/23 12:32:09;;;;;;;;;;;26.10;98.30;;;;;;5027220;28;19937;-67
2021/06/23 12:34:59;;;;;;;;;;;25.40;99.50;;;;;;5020374;28;20274;-67
2021/06/23 12:37:48;;;;;;;;;;;25.40;99.50;;;;;;5038964;28;20388;-67
2021/06/23 12:40:38;;;;;;;;;;;25.60;99.50;;;;;;5019021;28;19933;-67
2021/06/23 12:43:26;;;;;;;;;;;25.50;98.90;;;;;;5029322;28;20001;-67
2021/06/23 12:46:40;;;;;;;;;;;25.50;98.70;;;;;;5023728;28;19940;-66
2021/06/23 12:49:31;;;;;;;;;;;25.20;98.40;;;;;;5028487;28;19925;-67
2021/06/23 12:52:45;;;;;;;;;;;25.40;98.40;;;;;;5026210;28;19933;-67
2021/06/23 12:55:35;;;;;;;;;;;25.60;99.10;;;;;;5034190;28;19935;-67
2021/06/23 12:58:24;;;;;;;;;;;25.80;99.40;;;;;;5027984;28;19961;-67
2021/06/23 13:01:14;;;;;;;;;;;25.90;98.20;;;;;;5030349;28;20387;-67
2021/06/23 13:04:05;;;;;;;;;;;25.40;98.30;;;;;;5029931;28;21367;-66
2021/06/23 13:06:55;;;;;;;;;;;25.50;99.20;;;;;;5027077;28;19929;-66
2021/06/23 13:09:44;;;;;;;;;;;26.10;97.70;;;;;;5031079;28;19929;-67
2021/06/23 13:12:32;;;;;;;;;;;26.80;95.50;;;;;;5031706;28;20296;-66
2021/06/23 13:15:24;;;;;;;;;;;27.30;95.10;;;;;;5029650;28;19929;-66
2021/06/23 13:18:13;;;;;;;;;;;27.10;94.50;;;;;;5014239;28;19935;-66
2021/06/23 13:21:03;;;;;;;;;;;26.10;96.50;;;;;;5033602;28;19972;-65
2021/06/23 13:23:52;;;;;;;;;;;25.40;97.80;;;;;;5032336;28;19932;-66
2021/06/23 13:26:41;;;;;;;;;;;25.40;98.90;;;;;;5011468;28;19929;-66
2021/06/23 13:29:29;;;;;;;;;;;25.10;98.40;;;;;;5038746;28;19944;-66
2021/06/23 13:32:20;;;;;;;;;;;24.90;99.40;;;;;;5024728;28;19932;-65
2021/06/23 13:35:10;;;;;;;;;;;24.80;99.90;;;;;;5020936;28;19936;-65
2021/06/23 13:38:01;;;;;;;;;;;25.00;99.20;;;;;;5032864;28;20377;-65
2021/06/23 13:40:55;;;;;;;;;;;24.80;99.50;;;;;;5032680;28;20471;-65
2021/06/23 13:43:44;;;;;;;;;;;24.50;98.70;;;;;;5029768;28;20370;-66
2021/06/23 13:47:01;;;;;;;;;;;24.50;99.90;;;;;;5023087;28;20292;-66
2021/06/23 13:49:53;;;;;;;;;;;24.50;98.10;;;;;;5029312;28;19933;-66
2021/06/23 13:52:42;;;;;;;;;;;24.80;99.20;;;;;;5029736;28;19931;-66
2021/06/23 13:55:33;;;;;;;;;;;25.00;97.00;;;;;;5014794;28;19933;-69
2021/06/23 13:58:22;;;;;;;;;;;25.20;98.20;;;;;;5028180;28;19931;-66
2021/06/23 14:01:11;;;;;;;;;;;25.60;97.20;;;;;;5023223;28;19936;-67
2021/06/23 14:04:04;;;;;;;;;;;26.00;96.30;;;;;;5033640;28;20365;-67
2021/06/23 14:06:53;;;;;;;;;;;26.00;95.70;;;;;;5032757;28;19993;-67
2021/06/23 14:09:42;;;;;;;;;;;26.10;95.50;;;;;;5028164;28;19929;-67
2021/06/23 14:12:33;;;;;;;;;;;25.30;95.50;;;;;;5031985;28;20027;-67
2021/06/23 14:15:22;;;;;;;;;;;25.50;96.20;;;;;;5023075;28;19932;-67
2021/06/23 14:18:12;;;;;;;;;;;25.70;96.40;;;;;;5030217;28;19974;-67
2021/06/23 14:21:01;;;;;;;;;;;26.00;96.70;;;;;;5029236;28;19929;-67
2021/06/23 14:23:55;;;;;;;;;;;25.70;96.50;;;;;;5027227;28;19936;-67
2021/06/23 14:26:53;;;;;;;;;;;25.60;96.70;;;;;;5027291;28;19993;-67
2021/06/23 14:29:43;;;;;;;;;;;25.60;97.10;;;;;;5041617;28;20365;-67
2021/06/23 14:32:31;;;;;;;;;;;25.70;97.90;;;;;;5028729;28;19925;-65
2021/06/23 14:35:21;;;;;;;;;;;25.50;98.10;;;;;;5030605;28;19933;-67
2021/06/23 14:38:10;;;;;;;;;;;25.30;98.20;;;;;;5030296;28;20029;-67
2021/06/23 14:40:58;;;;;;;;;;;25.30;98.80;;;;;;5027913;28;19929;-67
2021/06/23 14:43:47;;;;;;;;;;;25.50;98.80;;;;;;5026411;28;19932;-67
2021/06/23 14:46:38;;;;;;;;;;;25.50;98.90;;;;;;5002661;28;20047;-67
2021/06/23 14:49:27;;;;;;;;;;;25.80;98.20;;;;;;5011572;28;19926;-70
2021/06/23 14:52:16;;;;;;;;;;;25.70;98.80;;;;;;5017129;28;20457;-66
2021/06/23 14:55:07;;;;;;;;;;;25.20;98.40;;;;;;5014957;28;19930;-65
2021/06/23 14:57:59;;;;;;;;;;;24.90;99.40;;;;;;5013612;28;19929;-65
2021/06/23 15:00:48;;;;;;;;;;;25.00;99.90;;;;;;5009168;28;19993;-67
2021/06/23 15:03:39;;;;;;;;;;;25.20;99.30;;;;;;5015332;28;19952;-67
2021/06/23 15:06:27;;;;;;;;;;;25.20;99.80;;;;;;5012689;28;19929;-65
2021/06/23 15:09:17;;;;;;;;;;;25.50;99.80;;;;;;5012352;28;19968;-65
2021/06/23 15:12:05;;;;;;;;;;;25.40;99.60;;;;;;5014271;28;19925;-69
2021/06/23 15:14:54;;;;;;;;;;;25.20;99.20;;;;;;5012459;28;20020;-65
2021/06/23 15:17:43;;;;;;;;;;;25.30;98.70;;;;;;5015213;28;19936;-66
2021/06/23 15:20:34;;;;;;;;;;;25.30;99.10;;;;;;5015718;28;19973;-65
2021/06/23 15:23:23;;;;;;;;;;;25.20;99.20;;;;;;5018884;28;20011;-65
2021/06/23 15:26:12;;;;;;;;;;;25.20;99.10;;;;;;4999495;28;19940;-65
2021/06/23 15:29:01;;;;;;;;;;;25.20;99.00;;;;;;5021338;28;19929;-65
2021/06/23 15:31:50;;;;;;;;;;;25.20;99.20;;;;;;5013549;28;19987;-67
2021/06/23 15:35:04;;;;;;;;;;;25.30;99.10;;;;;;5015364;28;19932;-66
2021/06/23 15:37:54;;;;;;;;;;;25.20;99.20;;;;;;5019805;28;19926;-67
2021/06/23 15:43:57;;;;;;;;;;;25.60;98.90;;;;;;5006121;28;19937;-67
2021/06/23 15:46:46;;;;;;;;;;;25.90;98.90;;;;;;4997946;28;19979;-66
2021/06/23 15:49:35;;;;;;;;;;;26.10;98.20;;;;;;5013341;28;19968;-67
2021/06/23 15:52:50;;;;;;;;;;;25.60;98.70;;;;;;5012932;28;20322;-66
2021/06/23 15:55:40;;;;;;;;;;;25.40;99.90;;;;;;4992229;28;20345;-67
2021/06/23 15:58:30;;;;;;;;;;;25.20;99.90;;;;;;5010134;28;19925;-67
2021/06/23 16:01:19;;;;;;;;;;;25.10;99.90;;;;;;4992505;28;19926;-69
2021/06/23 16:04:08;;;;;;;;;;;24.90;99.90;;;;;;5004126;28;19934;-66
2021/06/23 16:06:57;;;;;;;;;;;24.90;99.90;;;;;;4992572;28;19930;-64
2021/06/23 16:09:45;;;;;;;;;;;24.80;99.90;;;;;;4987519;28;20379;-65
2021/06/23 16:12:39;;;;;;;;;;;24.70;99.90;;;;;;4993893;28;20068;-65
2021/06/23 16:15:27;;;;;;;;;;;24.70;99.90;;;;;;4985785;28;20294;-67
2021/06/23 16:18:17;;;;;;;;;;;24.70;99.90;;;;;;4994116;28;20321;-66
2021/06/23 16:21:06;;;;;;;;;;;24.60;99.90;;;;;;5010664;28;20017;-66
2021/06/23 16:24:03;;;;;;;;;;;24.80;99.90;;;;;;5006511;28;19926;-66
2021/06/23 16:26:51;;;;;;;;;;;24.80;99.90;;;;;;5019554;28;20297;-67
2021/06/23 16:29:42;;;;;;;;;;;24.80;99.90;;;;;;5016539;28;19960;-65
2021/06/23 16:32:33;;;;;;;;;;;24.70;99.90;;;;;;5012740;28;20406;-65
2021/06/23 16:35:22;;;;;;;;;;;24.70;99.90;;;;;;5010459;28;19929;-66
2021/06/23 16:38:11;;;;;;;;;;;24.70;99.90;;;;;;5009236;28;19929;-65
2021/06/23 16:40:59;;;;;;;;;;;24.70;99.90;;;;;;5016839;28;19925;-67
2021/06/23 16:43:49;;;;;;;;;;;24.70;99.90;;;;;;5011699;28;19936;-63
2021/06/23 16:46:40;;;;;;;;;;;24.60;99.90;;;;;;5008153;28;19926;-67
2021/06/23 16:49:29;;;;;;;;;;;24.60;99.90;;;;;;5013079;28;19933;-66
2021/06/23 16:52:43;;;;;;;;;;;24.50;99.90;;;;;;5015470;28;20439;-67
2021/06/23 16:58:38;;;;;;;;;;;24.50;99.90;;;;;;5010979;28;20401;-66
2021/06/23 17:01:27;;;;;;;;;;;24.50;99.90;;;;;;5011058;28;20088;-67